LHPR 060915Z AUTO 29004KT 260V340 CAVOK 15/09 Q1029 NOSIG
From batch tds/metars/production/2022/10/6/h09_m56_metars.cache.csv.gz
Observed at (about 1 hour ago)
Identifier LHPR
LHPR 060845Z AUTO 28005KT 250V320 CAVOK 15/09 Q1029 NOSIG
From batch tds/metars/production/2022/10/6/h09_m29_metars.cache.csv.gz
Observed at (about 2 hours ago)
Identifier LHPR
LHPR 060815Z AUTO 29003KT 250V360 CAVOK 14/09 Q1029 NOSIG
From batch tds/metars/production/2022/10/6/h08_m51_metars.cache.csv.gz
Observed at (about 2 hours ago)
Identifier LHPR
LHPR 060745Z AUTO 00000KT CAVOK 14/10 Q1029 NOSIG
From batch tds/metars/production/2022/10/6/h08_m23_metars.cache.csv.gz
Observed at (about 3 hours ago)
Identifier LHPR
LHPR 060715Z AUTO 00000KT CAVOK 13/09 Q1028 NOSIG
From batch tds/metars/production/2022/10/6/h07_m52_metars.cache.csv.gz
Observed at (about 3 hours ago)
Identifier LHPR
LHPR 060645Z AUTO VRB01KT CAVOK 12/09 Q1028 NOSIG
From batch tds/metars/production/2022/10/6/h07_m27_metars.cache.csv.gz
Observed at (about 4 hours ago)
Identifier LHPR
LHPR 060615Z AUTO VRB02KT CAVOK 10/09 Q1028 NOSIG
From batch tds/metars/production/2022/10/6/h06_m49_metars.cache.csv.gz
Observed at (about 4 hours ago)
Identifier LHPR
LHPR 060545Z AUTO VRB02KT 6000 NSC 08/07 Q1027 NOSIG
From batch tds/metars/production/2022/10/6/h06_m20_metars.cache.csv.gz
Observed at (about 5 hours ago)
Identifier LHPR
LHPR 060515Z AUTO 08003KT 4800 BR NCD 06/05 Q1027 NOSIG
From batch tds/metars/production/2022/10/6/h05_m57_metars.cache.csv.gz
Observed at (about 5 hours ago)
Identifier LHPR
LHPR 060445Z AUTO 10003KT 8000 NCD 06/05 Q1027 NOSIG
From batch tds/metars/production/2022/10/6/h05_m21_metars.cache.csv.gz
Observed at (about 6 hours ago)
Identifier LHPR
LHPR 060415Z AUTO 12004KT 8000 NCD 06/05 Q1027 NOSIG
From batch tds/metars/production/2022/10/6/h04_m54_metars.cache.csv.gz
Observed at (about 6 hours ago)
Identifier LHPR
LHPR 060345Z AUTO 14002KT 8000 NCD 07/07 Q1027
From batch tds/metars/production/2022/10/6/h04_m25_metars.cache.csv.gz
Observed at (about 7 hours ago)
Identifier LHPR
LHPR 060315Z AUTO VRB03KT 8000 NCD 07/07 Q1027
From batch tds/metars/production/2022/10/6/h03_m51_metars.cache.csv.gz
Observed at (about 7 hours ago)
Identifier LHPR
LHPR 060245Z AUTO VRB03KT CAVOK 07/06 Q1027
From batch tds/metars/production/2022/10/6/h03_m20_metars.cache.csv.gz
Observed at (about 8 hours ago)
Identifier LHPR
LHPR 060215Z AUTO 05003KT CAVOK 07/06 Q1027
From batch tds/metars/production/2022/10/6/h02_m52_metars.cache.csv.gz
Observed at (about 8 hours ago)
Identifier LHPR
LHPR 060145Z AUTO 05005KT CAVOK 07/06 Q1026
From batch tds/metars/production/2022/10/6/h02_m26_metars.cache.csv.gz
Observed at (about 9 hours ago)
Identifier LHPR
LHPR 060115Z AUTO 08005KT CAVOK 08/07 Q1026
From batch tds/metars/production/2022/10/6/h01_m51_metars.cache.csv.gz
Observed at (about 9 hours ago)
Identifier LHPR
LHPR 060045Z AUTO 08004KT CAVOK 09/06 Q1026
From batch tds/metars/production/2022/10/6/h01_m22_metars.cache.csv.gz
Observed at (about 10 hours ago)
Identifier LHPR
LHPR 060015Z AUTO VRB03KT CAVOK 10/07 Q1026
From batch tds/metars/production/2022/10/6/h00_m59_metars.cache.csv.gz
Observed at (about 10 hours ago)
Identifier LHPR
LHPR 052345Z AUTO 11005KT 060V150 CAVOK 10/07 Q1026
From batch tds/metars/production/2022/10/6/h00_m19_metars.cache.csv.gz
Observed at (about 11 hours ago)
Identifier LHPR
LHPR 052315Z AUTO 14005KT 090V160 CAVOK 11/08 Q1026
From batch tds/metars/production/2022/10/5/h23_m58_metars.cache.csv.gz
Observed at (about 11 hours ago)
Identifier LHPR
LHPR 052245Z AUTO 13006KT CAVOK 10/07 Q1026
From batch tds/metars/production/2022/10/5/h23_m20_metars.cache.csv.gz
Observed at (about 12 hours ago)
Identifier LHPR
LHPR 052215Z AUTO 11006KT CAVOK 09/07 Q1026
From batch tds/metars/production/2022/10/5/h22_m59_metars.cache.csv.gz
Observed at (about 12 hours ago)
Identifier LHPR
LHPR 052145Z AUTO 12006KT CAVOK 10/08 Q1026
From batch tds/metars/production/2022/10/5/h22_m23_metars.cache.csv.gz
Observed at (about 13 hours ago)
Identifier LHPR
LHPR 052115Z AUTO 10007KT CAVOK 11/08 Q1026
From batch tds/metars/production/2022/10/5/h21_m56_metars.cache.csv.gz
Observed at (about 13 hours ago)
Identifier LHPR
LHPR 052045Z AUTO 11008KT CAVOK 11/08 Q1026
From batch tds/metars/production/2022/10/5/h21_m27_metars.cache.csv.gz
Observed at (about 14 hours ago)
Identifier LHPR
LHPR 052015Z AUTO 13008KT CAVOK 11/08 Q1026
From batch tds/metars/production/2022/10/5/h20_m57_metars.cache.csv.gz
Observed at (about 14 hours ago)
Identifier LHPR
LHPR 051945Z AUTO 13007KT CAVOK 11/08 Q1026
From batch tds/metars/production/2022/10/5/h20_m27_metars.cache.csv.gz
Observed at (about 15 hours ago)
Identifier LHPR
LHPR 051915Z AUTO 12008KT CAVOK 11/08 Q1026
From batch tds/metars/production/2022/10/5/h19_m49_metars.cache.csv.gz
Observed at (about 15 hours ago)
Identifier LHPR
LHPR 051845Z AUTO 12007KT CAVOK 12/08 Q1026
From batch tds/metars/production/2022/10/5/h19_m23_metars.cache.csv.gz
Observed at (about 16 hours ago)
Identifier LHPR
LHPR 051815Z AUTO 13007KT CAVOK 12/09 Q1026
From batch tds/metars/production/2022/10/5/h18_m53_metars.cache.csv.gz
Observed at (about 16 hours ago)
Identifier LHPR
LHPR 051745Z AUTO 12008KT CAVOK 13/09 Q1026
From batch tds/metars/production/2022/10/5/h18_m26_metars.cache.csv.gz
Observed at (about 17 hours ago)
Identifier LHPR
LHPR 051715Z AUTO 13006KT CAVOK 14/09 Q1026
From batch tds/metars/production/2022/10/5/h17_m55_metars.cache.csv.gz
Observed at (about 17 hours ago)
Identifier LHPR
LHPR 051645Z AUTO 14006KT CAVOK 15/09 Q1026 NOSIG
From batch tds/metars/production/2022/10/5/h17_m26_metars.cache.csv.gz
Observed at (about 18 hours ago)
Identifier LHPR
LHPR 051615Z AUTO 15005KT CAVOK 15/09 Q1025 NOSIG
From batch tds/metars/production/2022/10/5/h16_m57_metars.cache.csv.gz
Observed at (about 18 hours ago)
Identifier LHPR
LHPR 051545Z AUTO 16006KT CAVOK 16/10 Q1025 NOSIG
From batch tds/metars/production/2022/10/5/h16_m21_metars.cache.csv.gz
Observed at (about 19 hours ago)
Identifier LHPR
LHPR 051515Z AUTO 16008KT CAVOK 17/09 Q1026 NOSIG
From batch tds/metars/production/2022/10/5/h15_m53_metars.cache.csv.gz
Observed at (about 19 hours ago)
Identifier LHPR
LHPR 051445Z AUTO 16007KT CAVOK 18/09 Q1026 NOSIG
From batch tds/metars/production/2022/10/5/h15_m24_metars.cache.csv.gz
Observed at (about 20 hours ago)
Identifier LHPR
LHPR 051415Z AUTO 17009KT 140V200 CAVOK 19/09 Q1026 NOSIG
From batch tds/metars/production/2022/10/5/h14_m58_metars.cache.csv.gz
Observed at (about 20 hours ago)
Identifier LHPR
LHPR 051345Z AUTO 18009KT 130V210 CAVOK 19/09 Q1026 NOSIG
From batch tds/metars/production/2022/10/5/h14_m27_metars.cache.csv.gz
Observed at (about 21 hours ago)
Identifier LHPR
LHPR 051315Z AUTO 17009KT 140V230 CAVOK 19/09 Q1026 NOSIG
From batch tds/metars/production/2022/10/5/h13_m57_metars.cache.csv.gz
Observed at (about 21 hours ago)
Identifier LHPR
LHPR 051245Z AUTO 18009KT 140V210 CAVOK 19/09 Q1026 NOSIG
From batch tds/metars/production/2022/10/5/h13_m28_metars.cache.csv.gz
Observed at (about 22 hours ago)
Identifier LHPR
LHPR 051215Z AUTO 18009KT 150V230 CAVOK 20/08 Q1026 NOSIG
From batch tds/metars/production/2022/10/5/h12_m57_metars.cache.csv.gz
Observed at (about 22 hours ago)
Identifier LHPR
LHPR 051145Z AUTO 18010KT 150V210 CAVOK 19/08 Q1026 NOSIG
From batch tds/metars/production/2022/10/5/h12_m29_metars.cache.csv.gz
Observed at (about 23 hours ago)
Identifier LHPR
LHPR 051115Z AUTO 18010KT 150V210 CAVOK 19/09 Q1027 NOSIG
From batch tds/metars/production/2022/10/5/h11_m56_metars.cache.csv.gz
Observed at (about 23 hours ago)
Identifier LHPR
LHPR 051045Z AUTO 19012KT 150V230 CAVOK 19/08 Q1027 NOSIG
From batch tds/metars/production/2022/10/5/h11_m28_metars.cache.csv.gz
Observed at (about 24 hours ago)
Identifier LHPR
talk